sensor_id;sensor_type;location;lat;lon;timestamp;pressure;altitude;pressure_sealevel;temperature;humidity
34712;BME280;20941;42.408;25.634;2022-12-07T00:01:38;99733.75;;;9.12;100.00
34712;BME280;20941;42.408;25.634;2022-12-07T00:04:05;99748.09;;;9.06;100.00
34712;BME280;20941;42.408;25.634;2022-12-07T00:06:33;99746.78;;;8.98;100.00
34712;BME280;20941;42.408;25.634;2022-12-07T00:08:59;99735.66;;;8.88;100.00
34712;BME280;20941;42.408;25.634;2022-12-07T00:11:25;99757.50;;;8.91;100.00
34712;BME280;20941;42.408;25.634;2022-12-07T00:13:53;99757.00;;;8.83;100.00
34712;BME280;20941;42.408;25.634;2022-12-07T00:16:21;99738.06;;;8.70;100.00
34712;BME280;20941;42.408;25.634;2022-12-07T00:18:47;99751.47;;;8.78;100.00
34712;BME280;20941;42.408;25.634;2022-12-07T00:21:15;99738.38;;;8.69;100.00
34712;BME280;20941;42.408;25.634;2022-12-07T00:23:42;99748.25;;;8.61;100.00
34712;BME280;20941;42.408;25.634;2022-12-07T00:26:14;99747.78;;;8.43;100.00
34712;BME280;20941;42.408;25.634;2022-12-07T00:28:40;99743.38;;;8.32;100.00
34712;BME280;20941;42.408;25.634;2022-12-07T00:31:11;99749.81;;;8.38;100.00
34712;BME280;20941;42.408;25.634;2022-12-07T00:33:37;99742.25;;;8.33;100.00
34712;BME280;20941;42.408;25.634;2022-12-07T00:36:09;99748.41;;;8.35;100.00
34712;BME280;20941;42.408;25.634;2022-12-07T00:38:35;99761.91;;;8.28;100.00
34712;BME280;20941;42.408;25.634;2022-12-07T00:41:04;99753.50;;;8.28;100.00
34712;BME280;20941;42.408;25.634;2022-12-07T00:43:30;99733.44;;;8.10;100.00
34712;BME280;20941;42.408;25.634;2022-12-07T00:46:02;99747.91;;;8.28;100.00
34712;BME280;20941;42.408;25.634;2022-12-07T00:48:28;99717.41;;;8.21;100.00
34712;BME280;20941;42.408;25.634;2022-12-07T00:50:53;99716.78;;;8.29;100.00
34712;BME280;20941;42.408;25.634;2022-12-07T00:53:19;99742.78;;;8.40;100.00
34712;BME280;20941;42.408;25.634;2022-12-07T00:55:45;99715.41;;;8.27;100.00
34712;BME280;20941;42.408;25.634;2022-12-07T00:58:11;99736.03;;;8.41;100.00
34712;BME280;20941;42.408;25.634;2022-12-07T01:00:38;99737.09;;;8.50;100.00
34712;BME280;20941;42.408;25.634;2022-12-07T01:03:05;99740.75;;;8.51;100.00
34712;BME280;20941;42.408;25.634;2022-12-07T01:05:30;99712.56;;;8.32;100.00
34712;BME280;20941;42.408;25.634;2022-12-07T01:07:56;99740.50;;;8.47;100.00
34712;BME280;20941;42.408;25.634;2022-12-07T01:10:22;99742.47;;;8.42;100.00
34712;BME280;20941;42.408;25.634;2022-12-07T01:12:47;99733.00;;;8.32;100.00
34712;BME280;20941;42.408;25.634;2022-12-07T01:15:13;99700.47;;;8.02;100.00
34712;BME280;20941;42.408;25.634;2022-12-07T01:17:39;99737.88;;;8.16;100.00
34712;BME280;20941;42.408;25.634;2022-12-07T01:20:05;99712.81;;;7.96;100.00
34712;BME280;20941;42.408;25.634;2022-12-07T01:22:31;99715.09;;;7.89;100.00
34712;BME280;20941;42.408;25.634;2022-12-07T01:24:56;99727.06;;;7.99;100.00
34712;BME280;20941;42.408;25.634;2022-12-07T01:27:22;99727.72;;;7.86;100.00
34712;BME280;20941;42.408;25.634;2022-12-07T01:29:47;99696.16;;;7.70;100.00
34712;BME280;20941;42.408;25.634;2022-12-07T01:32:13;99687.75;;;7.70;100.00
34712;BME280;20941;42.408;25.634;2022-12-07T01:34:38;99710.41;;;7.79;100.00
34712;BME280;20941;42.408;25.634;2022-12-07T01:37:04;99689.13;;;7.78;100.00
34712;BME280;20941;42.408;25.634;2022-12-07T01:39:29;99720.66;;;7.94;100.00
34712;BME280;20941;42.408;25.634;2022-12-07T01:41:55;99686.63;;;7.76;100.00
34712;BME280;20941;42.408;25.634;2022-12-07T01:44:26;99684.91;;;7.80;100.00
34712;BME280;20941;42.408;25.634;2022-12-07T01:46:56;99671.50;;;7.72;100.00
34712;BME280;20941;42.408;25.634;2022-12-07T01:49:35;99689.94;;;7.78;100.00
34712;BME280;20941;42.408;25.634;2022-12-07T01:52:19;99706.41;;;7.90;100.00
34712;BME280;20941;42.408;25.634;2022-12-07T01:54:47;99709.50;;;7.89;100.00
34712;BME280;20941;42.408;25.634;2022-12-07T01:57:15;99684.31;;;7.83;100.00
34712;BME280;20941;42.408;25.634;2022-12-07T01:59:42;99700.47;;;7.97;100.00
34712;BME280;20941;42.408;25.634;2022-12-07T02:02:19;99676.16;;;7.87;100.00
34712;BME280;20941;42.408;25.634;2022-12-07T02:04:45;99685.47;;;7.82;100.00
34712;BME280;20941;42.408;25.634;2022-12-07T02:07:11;99679.03;;;7.77;100.00
34712;BME280;20941;42.408;25.634;2022-12-07T02:09:37;99678.78;;;7.73;100.00
34712;BME280;20941;42.408;25.634;2022-12-07T02:12:15;99681.88;;;7.71;100.00
34712;BME280;20941;42.408;25.634;2022-12-07T02:14:41;99679.91;;;7.72;100.00
34712;BME280;20941;42.408;25.634;2022-12-07T02:17:32;99678.75;;;7.78;100.00
34712;BME280;20941;42.408;25.634;2022-12-07T02:21:03;99685.47;;;7.82;100.00
34712;BME280;20941;42.408;25.634;2022-12-07T02:23:14;99679.31;;;7.80;100.00
34712;BME280;20941;42.408;25.634;2022-12-07T02:26:02;99676.81;;;7.79;100.00
34712;BME280;20941;42.408;25.634;2022-12-07T02:28:46;99645.22;;;7.68;100.00
34712;BME280;20941;42.408;25.634;2022-12-07T02:31:17;99673.09;;;7.83;100.00
34712;BME280;20941;42.408;25.634;2022-12-07T02:33:54;99656.66;;;7.77;100.00
34712;BME280;20941;42.408;25.634;2022-12-07T02:36:27;99657.75;;;7.76;100.00
34712;BME280;20941;42.408;25.634;2022-12-07T02:39:07;99661.16;;;7.73;100.00
34712;BME280;20941;42.408;25.634;2022-12-07T02:41:38;99650.88;;;7.63;100.00
34712;BME280;20941;42.408;25.634;2022-12-07T02:44:09;99667.59;;;7.73;100.00
34712;BME280;20941;42.408;25.634;2022-12-07T02:46:44;99630.81;;;7.40;100.00
34712;BME280;20941;42.408;25.634;2022-12-07T02:49:12;99679.34;;;7.70;100.00
34712;BME280;20941;42.408;25.634;2022-12-07T02:51:41;99679.94;;;7.67;100.00
34712;BME280;20941;42.408;25.634;2022-12-07T02:54:18;99662.06;;;7.63;100.00
34712;BME280;20941;42.408;25.634;2022-12-07T02:59:42;99682.09;;;7.80;100.00
34712;BME280;20941;42.408;25.634;2022-12-07T03:10:26;99646.75;;;7.90;100.00
34712;BME280;20941;42.408;25.634;2022-12-07T03:13:28;99659.66;;;7.85;100.00
34712;BME280;20941;42.408;25.634;2022-12-07T03:16:12;99655.75;;;7.86;100.00
34712;BME280;20941;42.408;25.634;2022-12-07T03:18:46;99620.59;;;7.65;100.00
34712;BME280;20941;42.408;25.634;2022-12-07T03:21:17;99657.41;;;7.87;100.00
34712;BME280;20941;42.408;25.634;2022-12-07T03:23:48;99651.22;;;7.91;100.00
34712;BME280;20941;42.408;25.634;2022-12-07T03:26:16;99651.22;;;7.96;100.00
34712;BME280;20941;42.408;25.634;2022-12-07T03:28:49;99634.56;;;7.70;100.00
34712;BME280;20941;42.408;25.634;2022-12-07T03:36:35;99640.16;;;7.70;100.00
34712;BME280;20941;42.408;25.634;2022-12-07T03:39:26;99658.50;;;7.92;100.00
34712;BME280;20941;42.408;25.634;2022-12-07T03:41:54;99657.94;;;7.95;100.00
34712;BME280;20941;42.408;25.634;2022-12-07T03:44:21;99663.53;;;7.95;100.00
34712;BME280;20941;42.408;25.634;2022-12-07T03:47:11;99660.19;;;7.93;100.00
34712;BME280;20941;42.408;25.634;2022-12-07T03:57:25;99649.31;;;7.81;100.00
34712;BME280;20941;42.408;25.634;2022-12-07T03:59:54;99623.41;;;7.65;100.00
34712;BME280;20941;42.408;25.634;2022-12-07T04:02:20;99631.22;;;7.68;100.00
34712;BME280;20941;42.408;25.634;2022-12-07T04:04:46;99650.44;;;7.80;100.00
34712;BME280;20941;42.408;25.634;2022-12-07T04:07:11;99650.22;;;7.76;100.00
34712;BME280;20941;42.408;25.634;2022-12-07T04:09:38;99632.06;;;7.68;100.00
34712;BME280;20941;42.408;25.634;2022-12-07T04:12:04;99659.22;;;7.68;100.00
34712;BME280;20941;42.408;25.634;2022-12-07T04:14:30;99655.31;;;7.69;100.00
34712;BME280;20941;42.408;25.634;2022-12-07T04:16:57;99650.88;;;7.63;100.00
34712;BME280;20941;42.408;25.634;2022-12-07T04:19:26;99642.50;;;7.52;100.00
34712;BME280;20941;42.408;25.634;2022-12-07T04:21:52;99635.22;;;7.57;100.00
34712;BME280;20941;42.408;25.634;2022-12-07T04:24:17;99636.63;;;7.54;100.00
34712;BME280;20941;42.408;25.634;2022-12-07T04:26:45;99644.09;;;7.69;100.00
34712;BME280;20941;42.408;25.634;2022-12-07T04:29:11;99642.69;;;7.71;100.00
34712;BME280;20941;42.408;25.634;2022-12-07T04:31:37;99634.81;;;7.74;100.00
34712;BME280;20941;42.408;25.634;2022-12-07T04:34:04;99635.06;;;7.77;100.00
34712;BME280;20941;42.408;25.634;2022-12-07T04:36:30;99615.00;;;7.65;100.00
34712;BME280;20941;42.408;25.634;2022-12-07T04:38:56;99637.91;;;7.72;100.00
34712;BME280;20941;42.408;25.634;2022-12-07T04:41:22;99650.78;;;7.73;100.00
34712;BME280;20941;42.408;25.634;2022-12-07T04:43:56;99650.78;;;7.73;100.00
34712;BME280;20941;42.408;25.634;2022-12-07T04:46:23;99650.88;;;7.63;100.00
34712;BME280;20941;42.408;25.634;2022-12-07T04:48:50;99639.72;;;7.52;100.00
34712;BME280;20941;42.408;25.634;2022-12-07T04:51:19;99641.38;;;7.53;100.00
34712;BME280;20941;42.408;25.634;2022-12-07T04:53:45;99662.53;;;7.75;100.00
34712;BME280;20941;42.408;25.634;2022-12-07T04:56:11;99656.69;;;7.71;100.00
34712;BME280;20941;42.408;25.634;2022-12-07T04:58:37;99659.16;;;7.78;100.00
34712;BME280;20941;42.408;25.634;2022-12-07T05:01:02;99657.47;;;7.82;100.00
34712;BME280;20941;42.408;25.634;2022-12-07T05:03:28;99645.69;;;7.80;100.00
34712;BME280;20941;42.408;25.634;2022-12-07T05:05:53;99650.44;;;7.80;100.00
34712;BME280;20941;42.408;25.634;2022-12-07T05:08:19;99654.16;;;7.75;100.00
34712;BME280;20941;42.408;25.634;2022-12-07T05:10:45;99634.56;;;7.70;100.00
34712;BME280;20941;42.408;25.634;2022-12-07T05:13:10;99654.09;;;7.80;100.00
34712;BME280;20941;42.408;25.634;2022-12-07T05:15:36;99655.78;;;7.81;100.00
34712;BME280;20941;42.408;25.634;2022-12-07T05:18:01;99640.66;;;7.82;100.00
34712;BME280;20941;42.408;25.634;2022-12-07T05:20:28;99632.31;;;7.72;100.00
34712;BME280;20941;42.408;25.634;2022-12-07T05:22:54;99640.66;;;7.82;100.00
34712;BME280;20941;42.408;25.634;2022-12-07T05:25:19;99652.38;;;7.84;100.00
34712;BME280;20941;42.408;25.634;2022-12-07T05:27:45;99650.72;;;7.83;100.00
34712;BME280;20941;42.408;25.634;2022-12-07T05:30:11;99611.69;;;7.63;100.00
34712;BME280;20941;42.408;25.634;2022-12-07T05:32:36;99642.94;;;7.75;100.00
34712;BME280;20941;42.408;25.634;2022-12-07T05:35:02;99652.72;;;7.78;100.00
34712;BME280;20941;42.408;25.634;2022-12-07T05:37:28;99617.84;;;7.60;100.00
34712;BME280;20941;42.408;25.634;2022-12-07T05:39:53;99658.84;;;7.80;100.00
34712;BME280;20941;42.408;25.634;2022-12-07T05:42:19;99650.75;;;7.78;100.00
34712;BME280;20941;42.408;25.634;2022-12-07T05:44:45;99655.47;;;7.83;100.00
34712;BME280;20941;42.408;25.634;2022-12-07T05:47:12;99622.88;;;7.63;100.00
34712;BME280;20941;42.408;25.634;2022-12-07T05:49:38;99633.47;;;7.66;100.00
34712;BME280;20941;42.408;25.634;2022-12-07T05:52:04;99657.47;;;7.77;100.00
34712;BME280;20941;42.408;25.634;2022-12-07T05:54:29;99645.75;;;7.70;100.00
34712;BME280;20941;42.408;25.634;2022-12-07T05:56:55;99661.41;;;7.76;100.00
34712;BME280;20941;42.408;25.634;2022-12-07T05:59:21;99633.81;;;7.54;100.00
34712;BME280;20941;42.408;25.634;2022-12-07T06:01:51;99633.59;;;7.45;100.00
34712;BME280;20941;42.408;25.634;2022-12-07T06:04:18;99629.09;;;7.49;100.00
34712;BME280;20941;42.408;25.634;2022-12-07T06:06:44;99646.34;;;7.67;100.00
34712;BME280;20941;42.408;25.634;2022-12-07T06:09:10;99652.50;;;7.69;100.00
34712;BME280;20941;42.408;25.634;2022-12-07T06:11:35;99658.06;;;7.74;100.00
34712;BME280;20941;42.408;25.634;2022-12-07T06:14:19;99661.47;;;7.66;100.00
34712;BME280;20941;42.408;25.634;2022-12-07T06:16:45;99667.03;;;7.76;100.00
34712;BME280;20941;42.408;25.634;2022-12-07T06:19:11;99670.88;;;7.85;100.00
34712;BME280;20941;42.408;25.634;2022-12-07T06:21:36;99635.06;;;7.77;100.00
34712;BME280;20941;42.408;25.634;2022-12-07T06:24:02;99669.66;;;8.02;100.00
34712;BME280;20941;42.408;25.634;2022-12-07T06:26:28;99667.41;;;7.99;100.00
34712;BME280;20941;42.408;25.634;2022-12-07T06:28:53;99655.25;;;8.14;100.00
34712;BME280;20941;42.408;25.634;2022-12-07T06:31:19;99661.72;;;8.14;100.00
34712;BME280;20941;42.408;25.634;2022-12-07T06:33:44;99670.22;;;8.33;100.00
34712;BME280;20941;42.408;25.634;2022-12-07T06:36:10;99640.94;;;8.21;100.00
34712;BME280;20941;42.408;25.634;2022-12-07T06:38:36;99666.22;;;8.45;100.00
34712;BME280;20941;42.408;25.634;2022-12-07T06:41:02;99636.34;;;8.30;100.00
34712;BME280;20941;42.408;25.634;2022-12-07T06:43:29;99660.25;;;8.57;100.00
34712;BME280;20941;42.408;25.634;2022-12-07T06:45:56;99647.41;;;8.50;100.00
34712;BME280;20941;42.408;25.634;2022-12-07T06:48:22;99632.84;;;8.48;100.00
34712;BME280;20941;42.408;25.634;2022-12-07T06:50:47;99648.50;;;8.55;100.00
34712;BME280;20941;42.408;25.634;2022-12-07T06:53:13;99650.22;;;8.45;100.00
34712;BME280;20941;42.408;25.634;2022-12-07T06:55:39;99659.16;;;8.53;100.00
34712;BME280;20941;42.408;25.634;2022-12-07T06:58:04;99666.09;;;8.60;100.00
34712;BME280;20941;42.408;25.634;2022-12-07T07:00:30;99655.75;;;8.56;100.00
34712;BME280;20941;42.408;25.634;2022-12-07T07:02:56;99655.94;;;8.70;100.00
34712;BME280;20941;42.408;25.634;2022-12-07T07:05:21;99662.78;;;8.82;100.00
34712;BME280;20941;42.408;25.634;2022-12-07T07:07:48;99646.63;;;8.74;100.00
34712;BME280;20941;42.408;25.634;2022-12-07T07:10:14;99630.81;;;8.83;100.00
34712;BME280;20941;42.408;25.634;2022-12-07T07:12:39;99652.59;;;9.16;100.00
34712;BME280;20941;42.408;25.634;2022-12-07T07:15:05;99646.22;;;9.10;100.00
34712;BME280;20941;42.408;25.634;2022-12-07T07:17:31;99648.28;;;9.24;97.79
34712;BME280;20941;42.408;25.634;2022-12-07T07:19:57;99603.66;;;9.03;97.06
34712;BME280;20941;42.408;25.634;2022-12-07T07:22:24;99652.56;;;9.40;96.78
34712;BME280;20941;42.408;25.634;2022-12-07T07:24:49;99655.84;;;9.47;96.87
34712;BME280;20941;42.408;25.634;2022-12-07T07:27:15;99645.16;;;9.50;95.54
34712;BME280;20941;42.408;25.634;2022-12-07T07:29:40;99635.59;;;9.51;94.18
34712;BME280;20941;42.408;25.634;2022-12-07T07:32:06;99656.56;;;9.77;93.79
34712;BME280;20941;42.408;25.634;2022-12-07T07:34:33;99649.28;;;9.76;92.50
34712;BME280;20941;42.408;25.634;2022-12-07T07:36:58;99646.84;;;9.89;91.13
34712;BME280;20941;42.408;25.634;2022-12-07T07:39:24;99654.81;;;10.01;90.35
34712;BME280;20941;42.408;25.634;2022-12-07T07:41:49;99652.25;;;10.04;91.27
34712;BME280;20941;42.408;25.634;2022-12-07T07:44:15;99630.91;;;10.03;91.32
34712;BME280;20941;42.408;25.634;2022-12-07T07:46:40;99664.28;;;10.24;88.98
34712;BME280;20941;42.408;25.634;2022-12-07T07:49:06;99674.91;;;10.27;88.57
34712;BME280;20941;42.408;25.634;2022-12-07T07:51:31;99670.41;;;10.26;88.97
34712;BME280;20941;42.408;25.634;2022-12-07T07:53:57;99670.41;;;10.26;88.97
34712;BME280;20941;42.408;25.634;2022-12-07T07:56:22;99670.53;;;9.83;89.99
34712;BME280;20941;42.408;25.634;2022-12-07T07:58:51;99670.84;;;9.38;92.13
34712;BME280;20941;42.408;25.634;2022-12-07T08:01:17;99677.91;;;9.35;93.78
34712;BME280;20941;42.408;25.634;2022-12-07T08:03:46;99655.38;;;9.40;92.62
34712;BME280;20941;42.408;25.634;2022-12-07T08:06:11;99662.72;;;9.36;92.38
34712;BME280;20941;42.408;25.634;2022-12-07T08:08:37;99637.06;;;9.24;94.31
34712;BME280;20941;42.408;25.634;2022-12-07T08:11:06;99665.66;;;9.69;92.93
34712;BME280;20941;42.408;25.634;2022-12-07T08:13:32;99639.19;;;9.75;89.14
34712;BME280;20941;42.408;25.634;2022-12-07T08:15:58;99679.72;;;10.26;89.20
34712;BME280;20941;42.408;25.634;2022-12-07T08:18:28;99670.03;;;10.52;87.88
34712;BME280;20941;42.408;25.634;2022-12-07T08:20:59;99635.56;;;10.60;86.73
34712;BME280;20941;42.408;25.634;2022-12-07T08:23:26;99626.13;;;10.70;85.42
34712;BME280;20941;42.408;25.634;2022-12-07T08:25:51;99629.47;;;10.86;85.08
34712;BME280;20941;42.408;25.634;2022-12-07T08:28:17;99599.06;;;10.88;83.50
34712;BME280;20941;42.408;25.634;2022-12-07T08:30:42;99654.47;;;10.87;84.60
34712;BME280;20941;42.408;25.634;2022-12-07T08:33:10;99666.53;;;10.74;88.09
34712;BME280;20941;42.408;25.634;2022-12-07T08:35:35;99666.56;;;10.88;88.98
34712;BME280;20941;42.408;25.634;2022-12-07T08:38:01;99655.31;;;10.88;90.09
34712;BME280;20941;42.408;25.634;2022-12-07T08:40:28;99661.91;;;11.11;87.57
34712;BME280;20941;42.408;25.634;2022-12-07T08:42:53;99662.84;;;11.34;86.13
34712;BME280;20941;42.408;25.634;2022-12-07T08:45:21;99635.19;;;11.36;84.45
34712;BME280;20941;42.408;25.634;2022-12-07T08:47:59;99660.47;;;11.78;84.56
34712;BME280;20941;42.408;25.634;2022-12-07T08:50:27;99645.78;;;11.81;82.76
34712;BME280;20941;42.408;25.634;2022-12-07T08:52:56;99636.44;;;11.95;81.41
34712;BME280;20941;42.408;25.634;2022-12-07T08:55:23;99648.59;;;12.18;80.21
34712;BME280;20941;42.408;25.634;2022-12-07T08:57:49;99636.19;;;12.19;79.27
34712;BME280;20941;42.408;25.634;2022-12-07T09:00:15;99646.81;;;12.22;79.21
34712;BME280;20941;42.408;25.634;2022-12-07T09:02:45;99629.94;;;11.94;80.28
34712;BME280;20941;42.408;25.634;2022-12-07T09:05:12;99643.50;;;11.69;80.20
34712;BME280;20941;42.408;25.634;2022-12-07T09:07:41;99626.44;;;11.88;79.94
34712;BME280;20941;42.408;25.634;2022-12-07T09:10:08;99622.19;;;12.14;79.49
34712;BME280;20941;42.408;25.634;2022-12-07T09:12:34;99625.72;;;12.19;76.93
34712;BME280;20941;42.408;25.634;2022-12-07T09:15:00;99640.47;;;12.16;77.73
34712;BME280;20941;42.408;25.634;2022-12-07T09:17:26;99626.81;;;12.10;77.66
34712;BME280;20941;42.408;25.634;2022-12-07T09:19:52;99620.34;;;12.09;77.69
34712;BME280;20941;42.408;25.634;2022-12-07T09:22:18;99628.38;;;12.39;78.22
34712;BME280;20941;42.408;25.634;2022-12-07T09:24:43;99612.97;;;12.45;77.34
34712;BME280;20941;42.408;25.634;2022-12-07T09:27:11;99584.53;;;12.32;76.22
34712;BME280;20941;42.408;25.634;2022-12-07T09:29:37;99613.03;;;12.54;77.38
34712;BME280;20941;42.408;25.634;2022-12-07T09:32:02;99610.53;;;12.29;78.19
34712;BME280;20941;42.408;25.634;2022-12-07T09:34:30;99608.22;;;12.09;79.05
34712;BME280;20941;42.408;25.634;2022-12-07T09:36:56;99601.63;;;12.36;77.57
34712;BME280;20941;42.408;25.634;2022-12-07T09:39:22;99581.03;;;12.35;78.26
34712;BME280;20941;42.408;25.634;2022-12-07T09:41:47;99575.63;;;12.48;78.76
34712;BME280;20941;42.408;25.634;2022-12-07T09:44:20;99585.25;;;12.78;78.08
34712;BME280;20941;42.408;25.634;2022-12-07T09:46:47;99585.75;;;12.72;76.87
34712;BME280;20941;42.408;25.634;2022-12-07T09:49:19;99570.94;;;12.66;77.27
34712;BME280;20941;42.408;25.634;2022-12-07T09:51:45;99585.84;;;12.98;75.35
34712;BME280;20941;42.408;25.634;2022-12-07T09:54:13;99581.53;;;13.00;74.41
34712;BME280;20941;42.408;25.634;2022-12-07T09:56:39;99584.69;;;12.99;72.83
34712;BME280;20941;42.408;25.634;2022-12-07T09:59:05;99563.78;;;12.68;74.55
34712;BME280;20941;42.408;25.634;2022-12-07T10:01:33;99574.97;;;12.82;74.40
34712;BME280;20941;42.408;25.634;2022-12-07T10:07:00;99557.69;;;13.24;73.30
34712;BME280;20941;42.408;25.634;2022-12-07T10:09:25;99568.38;;;13.45;73.10
34712;BME280;20941;42.408;25.634;2022-12-07T10:12:05;99545.53;;;13.15;71.50
34712;BME280;20941;42.408;25.634;2022-12-07T10:14:33;99500.81;;;12.99;72.06
34712;BME280;20941;42.408;25.634;2022-12-07T10:16:59;99563.91;;;13.44;72.09
34712;BME280;20941;42.408;25.634;2022-12-07T10:19:32;99535.38;;;13.05;71.85
34712;BME280;20941;42.408;25.634;2022-12-07T10:22:15;99566.25;;;13.02;71.32
34712;BME280;20941;42.408;25.634;2022-12-07T10:24:42;99557.81;;;13.10;72.23
34712;BME280;20941;42.408;25.634;2022-12-07T10:27:34;99501.69;;;12.60;70.53
34712;BME280;20941;42.408;25.634;2022-12-07T10:30:07;99546.78;;;12.51;73.92
34712;BME280;20941;42.408;25.634;2022-12-07T10:32:35;99538.63;;;12.81;73.05
34712;BME280;20941;42.408;25.634;2022-12-07T10:35:21;99547.22;;;13.25;72.54
34712;BME280;20941;42.408;25.634;2022-12-07T10:37:48;99537.28;;;13.45;71.87
34712;BME280;20941;42.408;25.634;2022-12-07T10:40:27;99542.72;;;13.32;69.19
34712;BME280;20941;42.408;25.634;2022-12-07T10:43:21;99533.47;;;13.41;70.27
34712;BME280;20941;42.408;25.634;2022-12-07T10:56:10;99518.66;;;14.14;64.87
34712;BME280;20941;42.408;25.634;2022-12-07T11:06:51;99498.91;;;13.79;65.88
34712;BME280;20941;42.408;25.634;2022-12-07T11:12:13;99507.72;;;13.77;65.20
34712;BME280;20941;42.408;25.634;2022-12-07T11:14:56;99501.56;;;13.84;66.22
34712;BME280;20941;42.408;25.634;2022-12-07T11:31:22;99477.28;;;13.30;67.37
34712;BME280;20941;42.408;25.634;2022-12-07T11:36:38;99473.84;;;12.67;68.51
34712;BME280;20941;42.408;25.634;2022-12-07T11:39:29;99473.72;;;12.90;69.07
34712;BME280;20941;42.408;25.634;2022-12-07T11:42:24;99465.94;;;12.95;65.98
34712;BME280;20941;42.408;25.634;2022-12-07T11:45:10;99476.34;;;12.77;65.48
34712;BME280;20941;42.408;25.634;2022-12-07T11:47:48;99476.31;;;12.60;67.53
34712;BME280;20941;42.408;25.634;2022-12-07T11:50:36;99460.22;;;12.69;69.68
34712;BME280;20941;42.408;25.634;2022-12-07T11:53:10;99458.53;;;12.59;69.07
34712;BME280;20941;42.408;25.634;2022-12-07T11:55:50;99464.25;;;12.77;70.25
34712;BME280;20941;42.408;25.634;2022-12-07T12:06:41;99451.16;;;12.98;68.87
34712;BME280;20941;42.408;25.634;2022-12-07T12:12:21;99426.25;;;12.83;68.38
34712;BME280;20941;42.408;25.634;2022-12-07T12:23:28;99431.44;;;13.16;67.51
34712;BME280;20941;42.408;25.634;2022-12-07T12:25:57;99439.72;;;13.21;67.90
34712;BME280;20941;42.408;25.634;2022-12-07T12:28:41;99429.59;;;13.03;68.21
34712;BME280;20941;42.408;25.634;2022-12-07T12:32:03;99432.91;;;13.05;68.48
34712;BME280;20941;42.408;25.634;2022-12-07T12:34:37;99427.28;;;13.05;68.48
34712;BME280;20941;42.408;25.634;2022-12-07T12:37:38;99382.88;;;12.79;68.00
34712;BME280;20941;42.408;25.634;2022-12-07T12:42:48;99411.78;;;12.93;68.65
34712;BME280;20941;42.408;25.634;2022-12-07T12:47:57;99428.25;;;12.91;70.27
34712;BME280;20941;42.408;25.634;2022-12-07T12:50:27;99432.41;;;12.85;71.14
34712;BME280;20941;42.408;25.634;2022-12-07T12:52:57;99431.38;;;12.90;71.73
34712;BME280;20941;42.408;25.634;2022-12-07T12:55:43;99405.34;;;12.93;72.44
34712;BME280;20941;42.408;25.634;2022-12-07T13:00:42;99429.75;;;13.15;71.80
34712;BME280;20941;42.408;25.634;2022-12-07T13:03:22;99432.06;;;13.13;71.45
34712;BME280;20941;42.408;25.634;2022-12-07T13:08:49;99431.72;;;13.06;71.86
34712;BME280;20941;42.408;25.634;2022-12-07T13:11:28;99358.34;;;12.71;71.88
34712;BME280;20941;42.408;25.634;2022-12-07T13:16:59;99429.75;;;13.15;71.41
34712;BME280;20941;42.408;25.634;2022-12-07T13:22:34;99439.19;;;12.75;73.90
34712;BME280;20941;42.408;25.634;2022-12-07T13:28:11;99426.06;;;12.71;74.22
34712;BME280;20941;42.408;25.634;2022-12-07T13:31:13;99426.28;;;12.34;75.43
34712;BME280;20941;42.408;25.634;2022-12-07T13:33:36;99432.50;;;12.22;76.94
34712;BME280;20941;42.408;25.634;2022-12-07T13:36:02;99419.94;;;12.28;76.88
34712;BME280;20941;42.408;25.634;2022-12-07T13:38:32;99433.75;;;12.39;75.95
34712;BME280;20941;42.408;25.634;2022-12-07T13:43:27;99411.19;;;12.39;75.80
34712;BME280;20941;42.408;25.634;2022-12-07T13:45:59;99420.34;;;12.53;75.48
34712;BME280;20941;42.408;25.634;2022-12-07T13:48:47;99417.69;;;12.48;75.25
34712;BME280;20941;42.408;25.634;2022-12-07T13:51:27;99412.72;;;12.45;74.88
34712;BME280;20941;42.408;25.634;2022-12-07T13:54:00;99347.53;;;11.97;75.11
34712;BME280;20941;42.408;25.634;2022-12-07T13:56:32;99424.00;;;12.45;75.06
34712;BME280;20941;42.408;25.634;2022-12-07T13:58:58;99406.19;;;12.35;75.31
34712;BME280;20941;42.408;25.634;2022-12-07T14:01:25;99393.03;;;12.22;75.65
34712;BME280;20941;42.408;25.634;2022-12-07T14:03:50;99410.13;;;12.26;75.87
34712;BME280;20941;42.408;25.634;2022-12-07T14:06:28;99426.44;;;12.29;75.98
34712;BME280;20941;42.408;25.634;2022-12-07T14:09:07;99411.94;;;12.13;76.59
34712;BME280;20941;42.408;25.634;2022-12-07T14:11:33;99436.84;;;12.28;76.20
34712;BME280;20941;42.408;25.634;2022-12-07T14:14:01;99438.31;;;12.17;76.66
34712;BME280;20941;42.408;25.634;2022-12-07T14:16:36;99430.28;;;11.79;77.66
34712;BME280;20941;42.408;25.634;2022-12-07T14:22:38;99447.81;;;11.76;79.19
34712;BME280;20941;42.408;25.634;2022-12-07T14:27:39;99431.31;;;11.37;81.84
34712;BME280;20941;42.408;25.634;2022-12-07T14:30:05;99419.28;;;11.23;82.03
34712;BME280;20941;42.408;25.634;2022-12-07T14:32:32;99444.78;;;11.40;82.24
34712;BME280;20941;42.408;25.634;2022-12-07T14:35:10;99427.09;;;11.26;82.21
34712;BME280;20941;42.408;25.634;2022-12-07T14:37:37;99437.34;;;11.22;82.47
34712;BME280;20941;42.408;25.634;2022-12-07T14:40:03;99425.34;;;11.16;83.13
34712;BME280;20941;42.408;25.634;2022-12-07T14:42:30;99430.03;;;11.21;83.25
34712;BME280;20941;42.408;25.634;2022-12-07T14:44:57;99436.16;;;11.23;83.85
34712;BME280;20941;42.408;25.634;2022-12-07T14:47:24;99431.94;;;11.12;84.66
34712;BME280;20941;42.408;25.634;2022-12-07T14:49:50;99425.59;;;11.06;85.17
34712;BME280;20941;42.408;25.634;2022-12-07T14:52:19;99426.44;;;11.06;85.90
34712;BME280;20941;42.408;25.634;2022-12-07T14:54:46;99437.03;;;11.10;85.65
34712;BME280;20941;42.408;25.634;2022-12-07T14:57:11;99439.56;;;10.97;85.71